Time;durP1;ratioP1;P1;durP2;ratioP2;P2;SDS_P1;SDS_P2;PMS_P1;PMS_P2;Temp;Humidity;BMP_temperature;BMP_pressure;BME280_temperature;BME280_humidity;BME280_pressure;Samples;Min_cycle;Max_cycle;Signal;HPM_P1;HPM_P2
2023/01/06 00:01:01;;;;;;;4.97;2.50;;;;;;;;;;775204;182;916840;-70
2023/01/06 00:03:26;;;;;;;6.00;2.80;;;;;;;;;;767121;181;921955;-69
2023/01/06 00:05:52;;;;;;;5.30;2.43;;;;;;;;;;769581;181;919441;-62
2023/01/06 00:08:18;;;;;;;3.07;1.73;;;;;;;;;;774783;181;808485;-69
2023/01/06 00:10:44;;;;;;;4.70;2.40;;;;;;;;;;764233;181;919429;-68
2023/01/06 00:13:10;;;;;;;3.70;2.10;;;;;;;;;;768536;181;918011;-69
2023/01/06 00:15:36;;;;;;;5.60;3.43;;;;;;;;;;770190;182;919282;-62
2023/01/06 00:18:01;;;;;;;4.70;2.70;;;;;;;;;;768566;181;847215;-62
2023/01/06 00:20:27;;;;;;;5.80;2.90;;;;;;;;;;769071;180;918818;-63
2023/01/06 00:22:53;;;;;;;6.03;2.95;;;;;;;;;;768034;181;919005;-68
2023/01/06 00:25:19;;;;;;;3.87;1.90;;;;;;;;;;773220;181;853674;-62
2023/01/06 00:27:45;;;;;;;4.37;2.63;;;;;;;;;;766032;180;921350;-68
2023/01/06 00:30:11;;;;;;;6.18;2.80;;;;;;;;;;769393;179;919240;-62
2023/01/06 00:32:37;;;;;;;3.17;2.17;;;;;;;;;;769570;181;919032;-62
2023/01/06 00:35:03;;;;;;;7.33;2.77;;;;;;;;;;772109;182;621261;-69
2023/01/06 00:37:29;;;;;;;6.63;2.83;;;;;;;;;;769393;181;831269;-62
2023/01/06 00:39:55;;;;;;;6.32;2.40;;;;;;;;;;770828;181;918243;-69
2023/01/06 00:42:21;;;;;;;7.67;4.30;;;;;;;;;;777206;179;817112;-69
2023/01/06 00:44:46;;;;;;;5.73;2.90;;;;;;;;;;769226;179;918232;-69
2023/01/06 00:47:13;;;;;;;4.53;2.30;;;;;;;;;;769168;179;780128;-70
2023/01/06 00:49:38;;;;;;;9.30;2.10;;;;;;;;;;771711;182;823607;-62
2023/01/06 00:52:04;;;;;;;8.63;3.30;;;;;;;;;;767292;179;917916;-62
2023/01/06 00:54:30;;;;;;;8.38;3.22;;;;;;;;;;769083;181;871964;-69
2023/01/06 00:56:56;;;;;;;5.60;2.13;;;;;;;;;;776229;180;919474;-69
2023/01/06 00:59:22;;;;;;;5.20;2.50;;;;;;;;;;770572;180;919088;-62
2023/01/06 01:01:47;;;;;;;3.80;2.50;;;;;;;;;;772036;181;917673;-69
2023/01/06 01:04:13;;;;;;;8.13;2.50;;;;;;;;;;774395;180;919388;-62
2023/01/06 01:06:39;;;;;;;6.20;3.27;;;;;;;;;;768389;181;935799;-62
2023/01/06 01:09:05;;;;;;;10.30;2.70;;;;;;;;;;767217;181;981539;-62
2023/01/06 01:14:02;;;;;;;7.00;2.43;;;;;;;;;;770808;181;920382;-69
2023/01/06 01:16:28;;;;;;;6.20;2.67;;;;;;;;;;768274;179;919827;-62
2023/01/06 01:18:54;;;;;;;11.63;4.70;;;;;;;;;;772544;179;918547;-62
2023/01/06 01:21:20;;;;;;;6.10;3.10;;;;;;;;;;774260;181;919257;-69
2023/01/06 01:23:46;;;;;;;9.50;5.70;;;;;;;;;;765348;182;919776;-62
2023/01/06 01:26:11;;;;;;;12.80;2.97;;;;;;;;;;769807;182;919264;-69
2023/01/06 01:28:37;;;;;;;8.00;3.23;;;;;;;;;;769231;182;918960;-69
2023/01/06 01:31:03;;;;;;;5.43;3.27;;;;;;;;;;772998;182;816722;-62
2023/01/06 01:33:29;;;;;;;4.60;3.20;;;;;;;;;;771569;181;919405;-63
2023/01/06 01:35:55;;;;;;;5.20;3.30;;;;;;;;;;763604;181;915721;-62
2023/01/06 01:38:21;;;;;;;5.63;3.03;;;;;;;;;;773660;181;914360;-63
2023/01/06 01:40:46;;;;;;;5.03;2.70;;;;;;;;;;763501;181;915057;-70
2023/01/06 01:43:12;;;;;;;7.63;2.90;;;;;;;;;;774893;181;919130;-63
2023/01/06 01:45:40;;;;;;;5.40;2.80;;;;;;;;;;769351;181;918750;-69
2023/01/06 01:48:04;;;;;;;3.80;2.43;;;;;;;;;;766401;179;919164;-65
2023/01/06 01:50:30;;;;;;;5.33;3.00;;;;;;;;;;760389;182;919111;-69
2023/01/06 01:52:56;;;;;;;5.12;3.10;;;;;;;;;;767384;182;919905;-63
2023/01/06 01:55:22;;;;;;;6.70;3.07;;;;;;;;;;777973;180;919014;-63
2023/01/06 01:57:48;;;;;;;5.43;3.30;;;;;;;;;;767577;182;919148;-69
2023/01/06 02:00:14;;;;;;;6.40;4.00;;;;;;;;;;773499;180;654637;-63
2023/01/06 02:02:40;;;;;;;5.93;3.30;;;;;;;;;;769315;181;851163;-63
2023/01/06 02:05:06;;;;;;;6.47;3.73;;;;;;;;;;773199;181;714009;-68
2023/01/06 02:07:32;;;;;;;4.60;2.97;;;;;;;;;;764062;181;919615;-69
2023/01/06 02:09:58;;;;;;;9.30;3.30;;;;;;;;;;771240;181;815242;-63
2023/01/06 02:12:24;;;;;;;20.47;13.07;;;;;;;;;;773744;180;816982;-63
2023/01/06 02:14:50;;;;;;;15.37;10.27;;;;;;;;;;776019;181;623102;-69
2023/01/06 02:17:17;;;;;;;18.37;10.87;;;;;;;;;;762166;181;916662;-64
2023/01/06 02:19:47;;;;;;;12.23;5.70;;;;;;;;;;779683;180;634775;-69
2023/01/06 02:22:22;;;;;;;7.73;3.80;;;;;;;;;;761518;181;918474;-69
2023/01/06 02:25:03;;;;;;;7.20;3.27;;;;;;;;;;769302;182;962325;-69
2023/01/06 02:27:29;;;;;;;5.03;2.90;;;;;;;;;;772580;179;913510;-64
2023/01/06 02:29:58;;;;;;;5.50;4.07;;;;;;;;;;762266;181;917500;-69
2023/01/06 02:32:29;;;;;;;6.67;3.07;;;;;;;;;;759446;182;817793;-69
2023/01/06 02:35:01;;;;;;;8.13;3.70;;;;;;;;;;771692;181;940752;-65
2023/01/06 02:37:30;;;;;;;4.70;3.10;;;;;;;;;;765684;182;916538;-65
2023/01/06 02:40:01;;;;;;;5.20;2.50;;;;;;;;;;764160;181;916869;-69
2023/01/06 02:42:37;;;;;;;61.83;25.70;;;;;;;;;;776955;182;914511;-69
2023/01/06 02:45:06;;;;;;;33.67;14.90;;;;;;;;;;774890;181;918348;-68
2023/01/06 02:47:34;;;;;;;20.23;10.47;;;;;;;;;;771830;182;919679;-63
2023/01/06 02:50:01;;;;;;;19.47;7.60;;;;;;;;;;769133;182;919198;-65
2023/01/06 02:52:31;;;;;;;9.53;5.70;;;;;;;;;;762067;182;918177;-63
2023/01/06 02:55:06;;;;;;;10.37;5.27;;;;;;;;;;756029;186;872108;-64
2023/01/06 02:57:38;;;;;;;6.90;3.60;;;;;;;;;;771199;182;918332;-63
2023/01/06 03:00:09;;;;;;;5.73;3.50;;;;;;;;;;768461;182;918734;-68
2023/01/06 03:02:35;;;;;;;9.33;3.53;;;;;;;;;;768850;182;919737;-64
2023/01/06 03:05:01;;;;;;;8.67;4.80;;;;;;;;;;773730;181;817946;-64
2023/01/06 03:07:27;;;;;;;16.33;6.80;;;;;;;;;;758294;182;923006;-68
2023/01/06 03:09:53;;;;;;;7.70;4.13;;;;;;;;;;769385;182;919091;-63
2023/01/06 03:12:19;;;;;;;10.87;4.73;;;;;;;;;;772223;179;938897;-63
2023/01/06 03:14:45;;;;;;;39.47;16.33;;;;;;;;;;775546;181;918293;-63
2023/01/06 03:17:11;;;;;;;76.03;30.57;;;;;;;;;;773439;181;912363;-64
2023/01/06 03:19:37;;;;;;;15.63;7.70;;;;;;;;;;775929;181;821460;-63
2023/01/06 03:22:03;;;;;;;27.70;11.50;;;;;;;;;;778500;180;919108;-65
2023/01/06 03:24:28;;;;;;;34.23;12.90;;;;;;;;;;765689;181;922302;-64
2023/01/06 03:26:54;;;;;;;18.48;10.10;;;;;;;;;;764234;180;923002;-71
2023/01/06 03:29:20;;;;;;;39.20;15.23;;;;;;;;;;777254;179;916486;-71
2023/01/06 03:31:52;;;;;;;22.50;10.40;;;;;;;;;;772068;179;919327;-71
2023/01/06 03:34:24;;;;;;;16.07;7.90;;;;;;;;;;759075;182;917833;-64
2023/01/06 03:37:04;;;;;;;15.57;7.53;;;;;;;;;;769282;181;921041;-64
2023/01/06 03:39:31;;;;;;;16.70;6.53;;;;;;;;;;756577;180;1021465;-70
2023/01/06 03:44:31;;;;;;;14.13;5.43;;;;;;;;;;770132;181;919273;-62
2023/01/06 03:46:57;;;;;;;17.00;7.03;;;;;;;;;;769939;179;930938;-71
2023/01/06 03:49:25;;;;;;;10.93;6.33;;;;;;;;;;767216;181;919597;-70
2023/01/06 03:51:52;;;;;;;14.43;7.53;;;;;;;;;;764653;182;816920;-70
2023/01/06 03:54:23;;;;;;;10.60;5.70;;;;;;;;;;757953;181;918939;-62
2023/01/06 03:56:49;;;;;;;15.10;5.87;;;;;;;;;;771759;180;919337;-62
2023/01/06 03:59:16;;;;;;;12.80;6.63;;;;;;;;;;771762;181;920745;-61
2023/01/06 04:01:42;;;;;;;14.57;5.60;;;;;;;;;;773859;182;780100;-67
2023/01/06 04:04:08;;;;;;;11.03;6.30;;;;;;;;;;769301;177;919140;-61
2023/01/06 04:06:33;;;;;;;12.30;5.57;;;;;;;;;;763907;181;919049;-69
2023/01/06 04:08:59;;;;;;;11.80;5.13;;;;;;;;;;771779;182;923767;-62
2023/01/06 04:13:57;;;;;;;9.27;5.60;;;;;;;;;;762161;179;919007;-70
2023/01/06 04:16:23;;;;;;;11.87;5.60;;;;;;;;;;763134;180;915513;-69
2023/01/06 04:18:48;;;;;;;8.85;5.32;;;;;;;;;;768131;181;913739;-69
2023/01/06 04:21:14;;;;;;;9.10;4.80;;;;;;;;;;766609;180;1017772;-69
2023/01/06 04:23:40;;;;;;;12.10;5.47;;;;;;;;;;769449;181;920967;-62
2023/01/06 04:26:06;;;;;;;10.70;5.23;;;;;;;;;;773315;180;920254;-62
2023/01/06 04:28:32;;;;;;;9.07;5.33;;;;;;;;;;771863;180;925849;-70
2023/01/06 04:30:58;;;;;;;11.07;6.07;;;;;;;;;;768931;181;1020703;-70
2023/01/06 04:33:23;;;;;;;11.57;8.13;;;;;;;;;;770068;181;918686;-70
2023/01/06 04:35:49;;;;;;;19.37;8.50;;;;;;;;;;776047;179;919628;-62
2023/01/06 04:38:15;;;;;;;13.13;7.97;;;;;;;;;;767643;179;919215;-69
2023/01/06 04:40:41;;;;;;;17.07;7.20;;;;;;;;;;767611;181;919318;-69
2023/01/06 04:43:12;;;;;;;9.27;5.60;;;;;;;;;;773041;181;918476;-62
2023/01/06 04:45:33;;;;;;;10.40;6.30;;;;;;;;;;765521;181;919823;-63
2023/01/06 04:47:59;;;;;;;8.40;4.87;;;;;;;;;;769242;181;922139;-63
2023/01/06 04:50:24;;;;;;;12.57;6.27;;;;;;;;;;771072;182;915973;-71
2023/01/06 04:52:50;;;;;;;13.60;6.30;;;;;;;;;;764949;182;919603;-63
2023/01/06 04:55:16;;;;;;;11.88;7.00;;;;;;;;;;766725;182;925283;-69
2023/01/06 04:57:42;;;;;;;8.87;6.20;;;;;;;;;;774007;182;916217;-62
2023/01/06 05:00:08;;;;;;;9.13;5.40;;;;;;;;;;766236;180;918460;-70
2023/01/06 05:02:34;;;;;;;9.17;5.63;;;;;;;;;;773600;181;634295;-63
2023/01/06 05:05:00;;;;;;;8.57;5.43;;;;;;;;;;769176;183;924568;-63
2023/01/06 05:07:26;;;;;;;11.90;7.23;;;;;;;;;;777486;182;622267;-69
2023/01/06 05:09:51;;;;;;;10.30;6.13;;;;;;;;;;770209;181;917025;-69
2023/01/06 05:12:17;;;;;;;11.68;6.30;;;;;;;;;;770800;182;919243;-68
2023/01/06 05:14:43;;;;;;;13.90;6.10;;;;;;;;;;778189;179;880397;-62
2023/01/06 05:17:09;;;;;;;9.47;5.90;;;;;;;;;;772352;181;918449;-63
2023/01/06 05:19:35;;;;;;;10.43;7.10;;;;;;;;;;772232;182;919528;-63
2023/01/06 05:22:01;;;;;;;8.80;6.20;;;;;;;;;;772688;181;921793;-68
2023/01/06 05:24:26;;;;;;;10.60;7.20;;;;;;;;;;766052;182;816183;-69
2023/01/06 05:26:53;;;;;;;7.93;5.50;;;;;;;;;;776023;182;823335;-69
2023/01/06 05:29:18;;;;;;;9.07;5.23;;;;;;;;;;774391;182;817923;-63
2023/01/06 05:31:44;;;;;;;7.37;4.90;;;;;;;;;;767918;182;919158;-70
2023/01/06 05:34:10;;;;;;;13.83;7.20;;;;;;;;;;772601;179;921591;-68
2023/01/06 05:36:36;;;;;;;11.80;7.07;;;;;;;;;;774226;180;919612;-69
2023/01/06 05:39:02;;;;;;;14.97;6.30;;;;;;;;;;778655;181;919391;-63
2023/01/06 05:41:27;;;;;;;10.90;5.30;;;;;;;;;;774028;180;918863;-64
2023/01/06 05:43:53;;;;;;;10.65;5.03;;;;;;;;;;777348;179;915862;-68
2023/01/06 05:46:19;;;;;;;9.50;5.27;;;;;;;;;;774752;181;893995;-63
2023/01/06 05:48:45;;;;;;;9.30;5.07;;;;;;;;;;760389;182;939561;-63
2023/01/06 05:51:11;;;;;;;22.13;15.43;;;;;;;;;;771364;179;918275;-70
2023/01/06 05:53:37;;;;;;;25.50;13.87;;;;;;;;;;769748;182;912855;-64
2023/01/06 05:56:02;;;;;;;25.60;14.20;;;;;;;;;;776504;180;918183;-69
2023/01/06 05:58:28;;;;;;;20.80;13.27;;;;;;;;;;772722;180;919195;-69
2023/01/06 06:00:54;;;;;;;17.20;11.50;;;;;;;;;;766779;182;918740;-68
2023/01/06 06:03:20;;;;;;;24.02;13.02;;;;;;;;;;777818;181;916595;-69
2023/01/06 06:05:46;;;;;;;19.93;13.90;;;;;;;;;;768797;181;916668;-64
2023/01/06 06:08:12;;;;;;;15.57;10.27;;;;;;;;;;755655;182;926368;-69
2023/01/06 06:10:38;;;;;;;11.07;7.17;;;;;;;;;;760404;186;920188;-63
2023/01/06 06:13:04;;;;;;;15.13;8.27;;;;;;;;;;764554;181;918307;-63
2023/01/06 06:15:29;;;;;;;21.20;11.50;;;;;;;;;;772671;180;914874;-63
2023/01/06 06:17:55;;;;;;;14.68;9.52;;;;;;;;;;776139;182;919202;-64
2023/01/06 06:20:21;;;;;;;10.07;6.97;;;;;;;;;;772257;181;898080;-63
2023/01/06 06:22:47;;;;;;;7.20;4.90;;;;;;;;;;771546;180;921128;-63
2023/01/06 06:25:13;;;;;;;12.10;7.33;;;;;;;;;;767820;182;921216;-68
2023/01/06 06:27:39;;;;;;;14.90;9.00;;;;;;;;;;776414;181;817400;-69
2023/01/06 06:30:05;;;;;;;18.23;9.70;;;;;;;;;;768501;181;1017889;-69
2023/01/06 06:32:31;;;;;;;14.93;9.47;;;;;;;;;;772818;181;816370;-69
2023/01/06 06:34:57;;;;;;;12.33;9.03;;;;;;;;;;774582;181;918661;-63
2023/01/06 06:37:23;;;;;;;10.33;8.03;;;;;;;;;;766320;182;918890;-70
2023/01/06 06:39:48;;;;;;;16.03;9.53;;;;;;;;;;772570;182;919399;-69
2023/01/06 06:42:14;;;;;;;8.43;5.53;;;;;;;;;;767802;181;918790;-63
2023/01/06 06:44:40;;;;;;;15.33;4.97;;;;;;;;;;767893;181;918880;-69
2023/01/06 06:47:06;;;;;;;10.80;4.30;;;;;;;;;;765828;181;918090;-69
2023/01/06 06:49:32;;;;;;;14.40;5.00;;;;;;;;;;768963;179;917553;-63
2023/01/06 06:51:58;;;;;;;9.95;5.90;;;;;;;;;;776196;181;918227;-63
2023/01/06 06:54:24;;;;;;;9.23;5.00;;;;;;;;;;773186;180;918695;-70
2023/01/06 06:56:49;;;;;;;9.43;5.20;;;;;;;;;;770365;181;919121;-63
2023/01/06 06:59:15;;;;;;;10.40;5.00;;;;;;;;;;774756;181;917863;-69
2023/01/06 07:01:41;;;;;;;11.70;6.13;;;;;;;;;;770103;181;918363;-69
2023/01/06 07:04:07;;;;;;;12.00;5.70;;;;;;;;;;771477;181;846472;-63
2023/01/06 07:06:33;;;;;;;7.90;5.83;;;;;;;;;;775024;181;816185;-63
2023/01/06 07:08:59;;;;;;;12.30;5.80;;;;;;;;;;770474;181;919335;-69
2023/01/06 07:11:24;;;;;;;8.47;5.73;;;;;;;;;;772706;179;629936;-70
2023/01/06 07:13:50;;;;;;;10.10;5.90;;;;;;;;;;770540;181;818369;-64
2023/01/06 07:16:16;;;;;;;10.10;5.93;;;;;;;;;;769402;181;1008055;-69
2023/01/06 07:18:42;;;;;;;8.83;4.87;;;;;;;;;;772952;179;643863;-70
2023/01/06 07:21:08;;;;;;;6.73;4.90;;;;;;;;;;774331;181;618160;-64
2023/01/06 07:23:34;;;;;;;10.90;6.13;;;;;;;;;;781481;181;620179;-71
2023/01/06 07:26:00;;;;;;;10.40;6.20;;;;;;;;;;775132;181;618766;-69
2023/01/06 07:28:26;;;;;;;11.67;6.20;;;;;;;;;;774167;182;627104;-65
2023/01/06 07:30:51;;;;;;;8.20;5.30;;;;;;;;;;777429;182;918081;-69
2023/01/06 07:33:19;;;;;;;9.57;7.50;;;;;;;;;;775613;180;816615;-64
2023/01/06 07:35:47;;;;;;;12.57;8.00;;;;;;;;;;756873;182;915768;-70
2023/01/06 07:38:14;;;;;;;11.93;6.97;;;;;;;;;;759640;182;917675;-65
2023/01/06 07:40:39;;;;;;;11.60;6.50;;;;;;;;;;770403;181;919563;-66
2023/01/06 07:43:06;;;;;;;11.60;7.20;;;;;;;;;;763996;181;918605;-69
2023/01/06 07:45:32;;;;;;;9.83;6.17;;;;;;;;;;769147;180;913050;-63
2023/01/06 07:47:58;;;;;;;10.93;6.93;;;;;;;;;;771767;183;917642;-63
2023/01/06 07:50:24;;;;;;;10.07;6.73;;;;;;;;;;770671;180;918904;-64
2023/01/06 07:52:49;;;;;;;13.50;9.10;;;;;;;;;;769760;182;920903;-64
2023/01/06 07:55:15;;;;;;;12.63;8.63;;;;;;;;;;772418;182;918820;-69
2023/01/06 07:57:41;;;;;;;11.30;8.33;;;;;;;;;;760818;182;819839;-64
2023/01/06 08:00:07;;;;;;;18.33;9.23;;;;;;;;;;760119;182;922416;-74
2023/01/06 08:02:33;;;;;;;19.53;8.40;;;;;;;;;;769416;180;917582;-65
2023/01/06 08:04:59;;;;;;;12.13;6.30;;;;;;;;;;771009;181;819444;-65
2023/01/06 08:07:25;;;;;;;17.47;11.80;;;;;;;;;;758924;181;926856;-68
2023/01/06 08:09:51;;;;;;;19.43;13.10;;;;;;;;;;755949;181;1023719;-71
2023/01/06 08:12:17;;;;;;;24.93;14.90;;;;;;;;;;765746;179;918926;-70
2023/01/06 08:14:43;;;;;;;13.73;9.07;;;;;;;;;;768418;180;909006;-64
2023/01/06 08:17:08;;;;;;;11.70;8.53;;;;;;;;;;772645;182;918689;-69
2023/01/06 08:19:34;;;;;;;12.50;8.20;;;;;;;;;;776991;182;923786;-68
2023/01/06 08:22:00;;;;;;;14.40;9.50;;;;;;;;;;767798;180;899639;-64
2023/01/06 08:24:28;;;;;;;12.53;7.27;;;;;;;;;;770511;182;933085;-69
2023/01/06 08:26:52;;;;;;;15.00;8.50;;;;;;;;;;773317;180;919310;-64
2023/01/06 08:29:18;;;;;;;11.27;7.80;;;;;;;;;;778229;180;918909;-64
2023/01/06 08:31:44;;;;;;;13.93;8.88;;;;;;;;;;770887;182;922710;-63
2023/01/06 08:34:13;;;;;;;12.93;7.10;;;;;;;;;;767130;182;917097;-63
2023/01/06 08:36:36;;;;;;;9.17;6.57;;;;;;;;;;776541;174;916878;-69
2023/01/06 08:39:02;;;;;;;12.25;7.80;;;;;;;;;;771543;179;1022427;-63
2023/01/06 08:41:27;;;;;;;12.87;8.80;;;;;;;;;;769153;181;914121;-70
2023/01/06 08:43:53;;;;;;;15.20;9.70;;;;;;;;;;766646;182;914471;-70
2023/01/06 08:46:19;;;;;;;13.00;8.73;;;;;;;;;;768146;180;918680;-63
2023/01/06 08:48:45;;;;;;;12.40;8.50;;;;;;;;;;770436;180;1021861;-70
2023/01/06 08:51:12;;;;;;;13.88;10.38;;;;;;;;;;772568;182;918158;-69
2023/01/06 08:53:37;;;;;;;16.20;9.90;;;;;;;;;;774180;180;918458;-63
2023/01/06 08:56:03;;;;;;;15.20;9.37;;;;;;;;;;767928;182;910252;-69
2023/01/06 08:58:29;;;;;;;16.57;9.80;;;;;;;;;;770068;182;921113;-69
2023/01/06 09:00:55;;;;;;;12.77;9.50;;;;;;;;;;773177;181;919237;-70
2023/01/06 09:03:21;;;;;;;13.90;10.07;;;;;;;;;;771794;180;918600;-62
2023/01/06 09:05:50;;;;;;;13.00;9.87;;;;;;;;;;770427;181;916595;-69
2023/01/06 09:08:16;;;;;;;14.23;8.73;;;;;;;;;;772922;182;918604;-70
2023/01/06 09:10:42;;;;;;;19.73;8.20;;;;;;;;;;773568;179;913941;-69
2023/01/06 09:13:08;;;;;;;13.60;9.60;;;;;;;;;;771053;180;1124304;-63
2023/01/06 09:15:34;;;;;;;11.50;8.03;;;;;;;;;;774333;179;920964;-69
2023/01/06 09:18:00;;;;;;;13.40;8.73;;;;;;;;;;779140;180;919750;-62
2023/01/06 09:20:26;;;;;;;12.60;8.60;;;;;;;;;;771621;180;919197;-62
2023/01/06 09:22:51;;;;;;;12.00;9.00;;;;;;;;;;763777;182;917273;-61
2023/01/06 09:25:19;;;;;;;15.43;7.63;;;;;;;;;;760088;186;919341;-68
2023/01/06 09:27:43;;;;;;;12.65;8.85;;;;;;;;;;760137;181;920240;-62
2023/01/06 09:30:09;;;;;;;13.80;8.90;;;;;;;;;;772909;181;919294;-68
2023/01/06 09:32:35;;;;;;;24.43;11.67;;;;;;;;;;776524;182;918746;-62
2023/01/06 09:35:01;;;;;;;20.30;11.33;;;;;;;;;;768153;182;1021452;-63
2023/01/06 09:37:27;;;;;;;18.95;9.60;;;;;;;;;;770365;181;916526;-68
2023/01/06 09:39:53;;;;;;;19.97;10.10;;;;;;;;;;766199;182;1017362;-67
2023/01/06 09:42:24;;;;;;;15.20;8.93;;;;;;;;;;767100;182;905992;-70
2023/01/06 09:44:55;;;;;;;20.27;10.53;;;;;;;;;;765161;182;918878;-62
2023/01/06 09:47:20;;;;;;;12.77;7.33;;;;;;;;;;771779;182;917161;-62
2023/01/06 09:49:47;;;;;;;15.43;8.57;;;;;;;;;;771301;182;934295;-63
2023/01/06 09:52:31;;;;;;;47.07;15.80;;;;;;;;;;759749;181;919801;-62
2023/01/06 09:55:01;;;;;;;29.90;11.47;;;;;;;;;;777402;180;913409;-68
2023/01/06 09:57:28;;;;;;;26.90;10.53;;;;;;;;;;770136;181;919693;-62
2023/01/06 09:59:54;;;;;;;16.83;8.40;;;;;;;;;;765898;181;918461;-62
2023/01/06 10:02:20;;;;;;;16.77;8.80;;;;;;;;;;771192;182;914782;-68
2023/01/06 10:04:46;;;;;;;15.40;7.30;;;;;;;;;;771859;179;919337;-62
2023/01/06 10:07:12;;;;;;;13.70;8.20;;;;;;;;;;773787;181;922179;-68
2023/01/06 10:09:38;;;;;;;22.23;8.20;;;;;;;;;;765722;182;919412;-68
2023/01/06 10:12:09;;;;;;;14.23;8.23;;;;;;;;;;775539;180;817256;-70
2023/01/06 10:14:38;;;;;;;13.60;8.07;;;;;;;;;;767830;181;827918;-61
2023/01/06 10:17:16;;;;;;;14.57;8.03;;;;;;;;;;773791;182;918637;-62
2023/01/06 10:19:49;;;;;;;13.63;8.03;;;;;;;;;;768062;182;917967;-68
2023/01/06 10:22:21;;;;;;;13.87;9.80;;;;;;;;;;764079;182;918850;-63
2023/01/06 10:24:48;;;;;;;12.90;7.60;;;;;;;;;;783275;178;818118;-62
2023/01/06 10:27:18;;;;;;;15.93;8.20;;;;;;;;;;766651;181;916201;-68
2023/01/06 10:29:44;;;;;;;12.13;8.07;;;;;;;;;;770637;181;920308;-63
2023/01/06 10:32:10;;;;;;;12.00;6.40;;;;;;;;;;772001;181;931350;-62
2023/01/06 10:34:36;;;;;;;12.95;5.72;;;;;;;;;;769654;182;919655;-68
2023/01/06 10:37:02;;;;;;;14.13;5.60;;;;;;;;;;769093;181;919336;-62
2023/01/06 10:39:28;;;;;;;12.37;6.28;;;;;;;;;;762347;181;918937;-68
2023/01/06 10:42:54;;;;;;;9.17;6.00;;;;;;;;;;778202;181;919565;-69
2023/01/06 10:44:21;;;;;;;10.15;5.70;;;;;;;;;;761333;182;918016;-68
2023/01/06 10:46:48;;;;;;;10.00;6.60;;;;;;;;;;764073;182;920313;-63
2023/01/06 10:49:13;;;;;;;9.23;6.50;;;;;;;;;;771979;182;920201;-62
2023/01/06 10:51:39;;;;;;;9.00;7.07;;;;;;;;;;765159;180;919368;-68
2023/01/06 10:54:05;;;;;;;8.63;6.30;;;;;;;;;;769753;179;919614;-69
2023/01/06 10:56:31;;;;;;;8.77;5.93;;;;;;;;;;772085;179;816714;-63
2023/01/06 10:58:56;;;;;;;12.17;6.37;;;;;;;;;;778521;180;817987;-68
2023/01/06 11:01:22;;;;;;;13.43;6.85;;;;;;;;;;768653;181;917741;-68
2023/01/06 11:03:48;;;;;;;8.93;6.40;;;;;;;;;;768536;181;919025;-68
2023/01/06 11:06:14;;;;;;;9.83;6.47;;;;;;;;;;772262;182;805429;-68
2023/01/06 11:08:40;;;;;;;10.37;6.70;;;;;;;;;;767960;182;803306;-62
2023/01/06 11:11:09;;;;;;;9.55;6.22;;;;;;;;;;767278;182;919998;-62
2023/01/06 11:13:34;;;;;;;12.97;6.77;;;;;;;;;;772528;181;920887;-63
2023/01/06 11:16:00;;;;;;;6.93;4.73;;;;;;;;;;764873;182;918252;-61
2023/01/06 11:18:27;;;;;;;11.10;5.60;;;;;;;;;;766728;181;1021614;-62
2023/01/06 11:21:09;;;;;;;11.33;6.23;;;;;;;;;;772254;180;922321;-68
2023/01/06 11:23:34;;;;;;;8.70;6.10;;;;;;;;;;772414;181;931235;-63
2023/01/06 11:26:01;;;;;;;7.83;4.67;;;;;;;;;;770751;180;918652;-68
2023/01/06 11:28:27;;;;;;;7.77;4.77;;;;;;;;;;768075;182;918075;-63
2023/01/06 11:30:53;;;;;;;9.30;3.60;;;;;;;;;;768541;181;919157;-68
2023/01/06 11:33:20;;;;;;;7.30;4.10;;;;;;;;;;770171;182;893587;-69
2023/01/06 11:35:45;;;;;;;7.63;3.43;;;;;;;;;;767569;179;922402;-65
2023/01/06 11:38:11;;;;;;;4.43;3.33;;;;;;;;;;769304;181;899066;-70
2023/01/06 11:40:37;;;;;;;8.80;3.13;;;;;;;;;;774992;181;920064;-69
2023/01/06 11:43:06;;;;;;;7.03;3.20;;;;;;;;;;768042;180;1021814;-68
2023/01/06 11:45:33;;;;;;;6.93;3.10;;;;;;;;;;768163;181;916544;-64
2023/01/06 11:47:57;;;;;;;6.40;2.80;;;;;;;;;;767000;181;918282;-63
2023/01/06 11:50:23;;;;;;;4.77;2.87;;;;;;;;;;773082;181;816088;-64
2023/01/06 11:52:55;;;;;;;5.10;2.53;;;;;;;;;;762956;181;919172;-68
2023/01/06 11:55:21;;;;;;;6.10;2.90;;;;;;;;;;768753;179;1022033;-63
2023/01/06 11:57:50;;;;;;;5.80;2.55;;;;;;;;;;772369;180;883430;-68
2023/01/06 12:00:21;;;;;;;7.03;2.50;;;;;;;;;;779202;180;919850;-68
2023/01/06 12:02:47;;;;;;;5.50;2.63;;;;;;;;;;770139;181;920503;-68
2023/01/06 12:05:12;;;;;;;4.47;3.43;;;;;;;;;;769820;179;918281;-63
2023/01/06 12:07:40;;;;;;;4.30;2.50;;;;;;;;;;775500;179;917351;-69
2023/01/06 12:10:09;;;;;;;4.00;2.60;;;;;;;;;;761935;182;934094;-69
2023/01/06 12:12:35;;;;;;;3.30;2.30;;;;;;;;;;768885;181;918728;-69
2023/01/06 12:15:00;;;;;;;6.15;2.70;;;;;;;;;;768529;180;918294;-63
2023/01/06 12:17:42;;;;;;;5.80;2.90;;;;;;;;;;774074;181;906681;-63
2023/01/06 12:20:07;;;;;;;4.77;3.03;;;;;;;;;;768940;182;918868;-63
2023/01/06 12:22:36;;;;;;;4.50;3.00;;;;;;;;;;768321;181;918202;-69
2023/01/06 12:25:02;;;;;;;5.27;3.23;;;;;;;;;;763236;181;821918;-62
2023/01/06 12:27:31;;;;;;;9.13;2.93;;;;;;;;;;775872;181;919382;-68
2023/01/06 12:29:57;;;;;;;6.40;3.43;;;;;;;;;;759272;181;919516;-62
2023/01/06 12:32:23;;;;;;;4.73;2.73;;;;;;;;;;770907;180;922972;-68
2023/01/06 12:34:49;;;;;;;5.17;3.00;;;;;;;;;;767504;181;920364;-68
2023/01/06 12:37:15;;;;;;;6.70;3.47;;;;;;;;;;774303;181;918682;-68
2023/01/06 12:39:42;;;;;;;5.40;3.10;;;;;;;;;;768593;180;928420;-68
2023/01/06 12:42:10;;;;;;;4.30;2.53;;;;;;;;;;770258;179;812933;-62
2023/01/06 12:44:41;;;;;;;4.07;2.80;;;;;;;;;;769575;179;817458;-67
2023/01/06 12:47:12;;;;;;;5.13;2.27;;;;;;;;;;772687;179;813135;-61
2023/01/06 12:49:42;;;;;;;5.50;2.57;;;;;;;;;;775782;179;916273;-62
2023/01/06 12:52:08;;;;;;;4.30;2.43;;;;;;;;;;771565;180;914593;-62
2023/01/06 12:54:34;;;;;;;8.30;3.15;;;;;;;;;;768663;181;938666;-68
2023/01/06 12:57:01;;;;;;;3.40;1.87;;;;;;;;;;767959;181;825301;-62
2023/01/06 12:59:45;;;;;;;6.50;3.03;;;;;;;;;;758372;182;921107;-62
2023/01/06 13:02:10;;;;;;;4.83;2.10;;;;;;;;;;775616;178;919912;-62
2023/01/06 13:04:42;;;;;;;6.20;3.12;;;;;;;;;;765100;181;1021352;-62
2023/01/06 13:07:10;;;;;;;4.53;2.80;;;;;;;;;;774449;181;918588;-68
2023/01/06 13:09:38;;;;;;;7.73;3.50;;;;;;;;;;768577;182;940954;-67
2023/01/06 13:12:06;;;;;;;4.67;3.17;;;;;;;;;;761769;182;919093;-62
2023/01/06 13:14:37;;;;;;;8.47;3.97;;;;;;;;;;772249;180;914115;-67
2023/01/06 13:17:06;;;;;;;6.77;3.30;;;;;;;;;;770987;182;815441;-62
2023/01/06 13:19:46;;;;;;;10.60;5.50;;;;;;;;;;769558;182;918911;-67
2023/01/06 13:22:13;;;;;;;7.37;3.63;;;;;;;;;;773416;177;918954;-67
2023/01/06 13:24:40;;;;;;;8.80;3.80;;;;;;;;;;768053;181;919211;-62
2023/01/06 13:27:20;;;;;;;5.50;3.50;;;;;;;;;;767572;181;918464;-62
2023/01/06 13:29:50;;;;;;;6.50;3.10;;;;;;;;;;766299;181;926435;-68
2023/01/06 13:32:22;;;;;;;8.97;4.13;;;;;;;;;;759639;186;833822;-62
2023/01/06 13:35:06;;;;;;;9.80;3.70;;;;;;;;;;765502;182;920798;-68
2023/01/06 13:37:34;;;;;;;10.15;3.80;;;;;;;;;;769912;180;919146;-68
2023/01/06 13:40:02;;;;;;;9.17;4.13;;;;;;;;;;766558;182;919000;-68
2023/01/06 13:42:43;;;;;;;9.73;5.20;;;;;;;;;;768705;182;817570;-62
2023/01/06 13:45:10;;;;;;;12.03;5.20;;;;;;;;;;767062;181;919637;-62
2023/01/06 13:47:35;;;;;;;10.17;4.60;;;;;;;;;;777435;180;1017794;-68
2023/01/06 13:50:01;;;;;;;10.38;5.25;;;;;;;;;;770644;180;916570;-63
2023/01/06 13:52:27;;;;;;;11.40;4.63;;;;;;;;;;766921;182;921141;-68
2023/01/06 13:54:53;;;;;;;10.50;4.87;;;;;;;;;;771876;180;918846;-62
2023/01/06 13:57:34;;;;;;;10.10;5.37;;;;;;;;;;771872;182;824642;-68
2023/01/06 14:00:14;;;;;;;7.23;4.10;;;;;;;;;;762749;181;819711;-62
2023/01/06 14:02:55;;;;;;;8.10;4.47;;;;;;;;;;773191;181;918985;-61
2023/01/06 14:05:36;;;;;;;9.60;5.03;;;;;;;;;;770526;177;816712;-68
2023/01/06 14:08:02;;;;;;;11.33;4.90;;;;;;;;;;771353;181;816344;-62
2023/01/06 14:10:29;;;;;;;11.23;4.90;;;;;;;;;;766826;179;931199;-62
2023/01/06 14:12:55;;;;;;;16.80;5.20;;;;;;;;;;776771;181;805797;-62
2023/01/06 14:15:21;;;;;;;9.47;4.90;;;;;;;;;;773233;180;916153;-62
2023/01/06 14:17:47;;;;;;;10.10;4.53;;;;;;;;;;767347;182;918260;-62
2023/01/06 14:20:17;;;;;;;8.30;4.70;;;;;;;;;;765668;182;918436;-63
2023/01/06 14:22:42;;;;;;;11.87;5.80;;;;;;;;;;770841;182;911502;-68
2023/01/06 14:25:08;;;;;;;8.50;5.57;;;;;;;;;;769989;181;921225;-68
2023/01/06 14:27:40;;;;;;;18.83;6.07;;;;;;;;;;766717;182;918231;-67